This is the latest recevied weather packets stored in our database for station/object KC1OEK-13. If no packets are shown the sender has not sent any weather packets the latest 10 day(s).
| Time | Temp. | Humidity | Pressure | Rain* | Wind** | Luminosity | Snow |
|---|---|---|---|---|---|---|---|
| 1787599115 | 26.11° C | 56% | 1015.2 hPa | 0 mm | - | 590 W/m² | - |
| 1787598810 | 25.56° C | 56% | 1015.1 hPa | 0 mm | - | 532 W/m² | - |
| 1787598506 | 26.11° C | 55% | 1015.2 hPa | 0 mm | - | 603 W/m² | - |
| 1787598201 | 25.56° C | 56% | 1015.1 hPa | 0 mm | - | 591 W/m² | - |
| 1787597897 | 25.56° C | 56% | 1015.3 hPa | 0 mm | - | 601 W/m² | - |
| 1787597596 | 25.56° C | 58% | 1015.3 hPa | 0 mm | - | 569 W/m² | - |
| 1787597295 | 26.11° C | 55% | 1015.2 hPa | 0 mm | - | 564 W/m² | - |
| 1787596991 | 25.56° C | 59% | 1014.9 hPa | 0 mm | - | 641 W/m² | - |
| 1787596687 | 25° C | 58% | 1015.1 hPa | 0 mm | - | 562 W/m² | - |
| 1787596382 | 25.56° C | 58% | 1015.3 hPa | 0 mm | - | 250 W/m² | - |
| 1787596078 | 24.44° C | 59% | 1015.2 hPa | 0 mm | - | 461 W/m² | - |
| 1787595773 | 26.11° C | 58% | 1015.3 hPa | 0 mm | - | 404 W/m² | - |
| 1787595469 | 26.11° C | 57% | 1015.3 hPa | 0 mm | - | 690 W/m² | - |
| 1787595164 | 25.56° C | 57% | 1015.3 hPa | 0 mm | - | 731 W/m² | - |
| 1787594864 | 25.56° C | 57% | 1015.3 hPa | 0 mm | - | 694 W/m² | - |
| 1787594559 | 25.56° C | 57% | 1015.5 hPa | 0 mm | - | 690 W/m² | - |
| 1787594257 | 25° C | 60% | 1015.3 hPa | 0 mm | - | 677 W/m² | - |
| 1787593952 | 25.56° C | 58% | 1015.5 hPa | 0 mm | - | 686 W/m² | - |
| 1787593647 | 25° C | 60% | 1015.4 hPa | 0 mm | - | 717 W/m² | - |
| 1787593342 | 25° C | 61% | 1015.4 hPa | 0 mm | - | 733 W/m² | - |
| 1787593038 | 26.67° C | 56% | 1015.5 hPa | 0 mm | - | 250 W/m² | - |
| 1787592733 | 26.11° C | 57% | 1015.4 hPa | 0 mm | - | 769 W/m² | - |
| 1787592432 | 25.56° C | 58% | 1015.6 hPa | 0 mm | - | 712 W/m² | - |
| 1787592127 | 26.11° C | 60% | 1015.6 hPa | 0 mm | - | 700 W/m² | - |
| 1787591823 | 25.56° C | 58% | 1015.4 hPa | 0 mm | - | 695 W/m² | - |
* Rain latest hour (hover to see other rain measurements)
** Current wind speed in m/s (hover to see current wind gust speed)